Terminal Aerodrome Forecast
Issued by NWS

Current Version | Previous Version | Text Only | Print | Product List | Glossary Off
Versions: 1 2 3 4 5 6 7 8 9 10 11 12 13 14 15 16 17 18 19 20 21

000
FTUS41 KRLX 270800 AAA
TAFCKB
TAF AMD
KCKB 270802Z 2708/2806 35008G13KT 4SM -SN OVC025
      TEMPO 2708/2709 2SM -SN BKN015
     FM270900 35007KT 6SM -SN BKN025
     FM271000 35007KT P6SM BKN045
     FM271100 34006KT P6SM SKC
     FM271500 30006KT P6SM BKN025
     FM271900 30006KT P6SM SCT035
     FM280000 00000KT P6SM SCT040
     FM280200 00000KT P6SM BKN250=

USA.gov is the U.S. government's official web portal to all federal, state and local government web resources and services.